createdAt,value
2022-12-01T00:01:05.522Z,17.31
2022-12-01T00:03:32.534Z,18.25
2022-12-01T00:05:59.527Z,19.00
2022-12-01T00:08:26.612Z,20.13
2022-12-01T00:10:53.610Z,21.00
2022-12-01T00:13:20.604Z,21.69
2022-12-01T00:15:47.603Z,22.81
2022-12-01T00:18:14.633Z,23.56
2022-12-01T00:20:41.689Z,24.56
2022-12-01T00:23:08.698Z,25.13
2022-12-01T00:25:35.695Z,26.25
2022-12-01T00:28:02.794Z,26.88
2022-12-01T00:30:29.760Z,27.13
2022-12-01T00:32:56.787Z,26.81
2022-12-01T00:35:23.761Z,26.44
2022-12-01T00:37:50.748Z,25.88
2022-12-01T00:40:17.751Z,25.56
2022-12-01T00:42:44.795Z,25.06
2022-12-01T00:45:11.801Z,24.63
2022-12-01T00:47:38.771Z,24.25
2022-12-01T00:50:05.734Z,23.94
2022-12-01T00:52:32.725Z,23.69
2022-12-01T00:54:59.762Z,23.44
2022-12-01T00:57:26.764Z,23.19
2022-12-01T00:59:53.794Z,23.00
2022-12-01T01:02:20.808Z,22.69
2022-12-01T01:04:47.878Z,22.38
2022-12-01T01:07:14.868Z,22.06
2022-12-01T01:09:41.879Z,21.81
2022-12-01T01:12:08.857Z,21.56
2022-12-01T01:14:35.870Z,21.50
2022-12-01T01:17:02.998Z,21.88
2022-12-01T01:19:30.016Z,22.88
2022-12-01T01:21:57.058Z,24.06
2022-12-01T01:24:24.035Z,25.13
2022-12-01T01:26:50.993Z,26.19
2022-12-01T01:29:17.980Z,26.94
2022-12-01T01:31:45.039Z,27.06
2022-12-01T01:34:12.080Z,26.75
2022-12-01T01:36:39.106Z,26.38
2022-12-01T01:39:06.107Z,25.88
2022-12-01T01:41:33.121Z,25.44
2022-12-01T01:44:00.115Z,25.00
2022-12-01T01:46:27.229Z,24.63
2022-12-01T01:48:54.253Z,24.31
2022-12-01T01:51:21.232Z,23.94
2022-12-01T01:53:48.239Z,23.63
2022-12-01T01:56:15.214Z,23.38
2022-12-01T01:58:42.192Z,23.13
2022-12-01T02:01:09.227Z,22.81
2022-12-01T02:03:36.260Z,22.56
2022-12-01T02:06:05.103Z,22.38
2022-12-01T02:08:32.297Z,22.13
2022-12-01T02:10:59.333Z,21.88
2022-12-01T02:13:26.335Z,21.63
2022-12-01T02:15:53.333Z,21.44
2022-12-01T02:18:20.305Z,21.25
2022-12-01T02:20:47.305Z,21.44
2022-12-01T02:23:14.328Z,22.25
2022-12-01T02:25:41.307Z,23.50
2022-12-01T02:28:08.296Z,24.75
2022-12-01T02:30:35.365Z,25.88
2022-12-01T02:33:02.396Z,26.88
2022-12-01T02:35:29.376Z,27.50
2022-12-01T02:37:56.367Z,27.44
2022-12-01T02:40:23.374Z,27.00
2022-12-01T02:42:50.360Z,26.50
2022-12-01T02:45:17.322Z,25.94
2022-12-01T02:47:44.324Z,25.50
2022-12-01T02:50:11.300Z,25.06
2022-12-01T02:52:38.268Z,24.63
2022-12-01T02:55:05.228Z,24.31
2022-12-01T02:57:32.236Z,23.94
2022-12-01T02:59:59.213Z,23.63
2022-12-01T03:02:26.255Z,23.31
2022-12-01T03:04:53.315Z,23.06
2022-12-01T03:07:20.331Z,22.81
2022-12-01T03:09:47.846Z,22.56
2022-12-01T03:12:15.095Z,22.31
2022-12-01T03:14:42.090Z,22.13
2022-12-01T03:17:09.066Z,21.88
2022-12-01T03:19:36.037Z,21.63
2022-12-01T03:22:03.013Z,21.38
2022-12-01T03:24:30.047Z,21.56
2022-12-01T03:26:57.022Z,22.44
2022-12-01T03:29:24.056Z,23.75
2022-12-01T03:31:51.031Z,25.06
2022-12-01T03:34:18.006Z,26.31
2022-12-01T03:36:44.966Z,27.25
2022-12-01T03:39:11.996Z,27.75
2022-12-01T03:41:39.028Z,27.56
2022-12-01T03:44:06.048Z,27.06
2022-12-01T03:46:33.151Z,26.56
2022-12-01T03:49:00.188Z,26.06
2022-12-01T03:51:27.214Z,25.56
2022-12-01T03:53:54.297Z,25.13
2022-12-01T03:56:21.321Z,24.69
2022-12-01T03:58:48.349Z,24.38
2022-12-01T04:01:16.944Z,24.00
2022-12-01T04:03:43.984Z,23.69
2022-12-01T04:06:10.989Z,23.38
2022-12-01T04:08:37.945Z,23.13
2022-12-01T04:11:04.986Z,22.88
2022-12-01T04:13:31.992Z,22.63
2022-12-01T04:15:59.088Z,22.38
2022-12-01T04:18:26.174Z,22.06
2022-12-01T04:21:02.580Z,21.81
2022-12-01T04:23:29.612Z,21.56
2022-12-01T04:25:56.613Z,21.44
2022-12-01T04:28:23.688Z,21.88
2022-12-01T04:30:50.679Z,22.94
2022-12-01T04:33:17.719Z,24.31
2022-12-01T04:35:44.773Z,25.38
2022-12-01T04:38:11.776Z,26.75
2022-12-01T04:40:38.775Z,27.63
2022-12-01T04:43:05.750Z,27.63
2022-12-01T04:45:32.826Z,27.38
2022-12-01T04:47:59.886Z,26.88
2022-12-01T04:50:26.935Z,26.31
2022-12-01T04:52:54.079Z,25.81
2022-12-01T04:55:21.601Z,25.31
2022-12-01T04:57:48.645Z,24.94
2022-12-01T05:00:15.624Z,24.56
2022-12-01T05:02:42.629Z,24.19
2022-12-01T05:05:09.640Z,23.88
2022-12-01T05:07:36.686Z,23.56
2022-12-01T05:10:03.725Z,23.31
2022-12-01T05:12:30.669Z,23.06
2022-12-01T05:14:57.667Z,22.75
2022-12-01T05:17:24.683Z,22.50
2022-12-01T05:19:51.840Z,22.25
2022-12-01T05:22:36.450Z,22.00
2022-12-01T05:25:05.935Z,21.69
2022-12-01T05:27:32.961Z,21.44
2022-12-01T05:29:59.959Z,21.31
2022-12-01T05:32:26.945Z,21.88
2022-12-01T05:34:53.938Z,22.94
2022-12-01T05:37:20.968Z,24.31
2022-12-01T05:39:48.378Z,25.63
2022-12-01T05:42:15.562Z,26.81
2022-12-01T05:44:42.625Z,27.81
2022-12-01T05:47:09.663Z,27.94
2022-12-01T05:49:36.667Z,27.63
2022-12-01T05:52:03.698Z,27.13
2022-12-01T05:54:30.704Z,26.56
2022-12-01T06:13:51.408Z,21.81
2022-12-01T06:16:18.470Z,22.69
2022-12-01T06:18:45.488Z,23.44
2022-12-01T06:21:12.455Z,24.13
2022-12-01T06:23:39.470Z,24.81
2022-12-01T06:26:06.450Z,25.50
2022-12-01T06:28:33.458Z,25.88
2022-12-01T06:31:03.379Z,25.75
2022-12-01T06:33:33.008Z,25.50
2022-12-01T06:36:00.021Z,25.25
2022-12-01T06:38:27.019Z,24.94
2022-12-01T06:40:54.014Z,24.69
2022-12-01T06:43:21.032Z,24.50
2022-12-01T06:45:49.174Z,24.13
2022-12-01T06:48:16.293Z,23.81
2022-12-01T06:50:46.008Z,23.44
2022-12-01T06:53:12.965Z,23.13
2022-12-01T06:55:39.966Z,22.88
2022-12-01T06:58:07.028Z,22.56
2022-12-01T07:00:34.497Z,22.25
2022-12-01T07:03:01.687Z,22.00
2022-12-01T07:05:28.740Z,21.75
2022-12-01T07:07:59.499Z,21.50
2022-12-01T07:10:27.005Z,21.31
2022-12-01T07:15:45.634Z,22.31
2022-12-01T07:18:12.614Z,22.88
2022-12-01T07:20:39.597Z,23.75
2022-12-01T07:23:06.747Z,24.56
2022-12-01T07:25:33.740Z,25.44
2022-12-01T07:28:00.708Z,25.94
2022-12-01T07:30:28.718Z,26.06
2022-12-01T07:32:55.761Z,26.00
2022-12-01T07:35:22.770Z,25.88
2022-12-01T07:37:49.772Z,25.56
2022-12-01T07:40:16.790Z,25.13
2022-12-01T07:42:43.816Z,24.75
2022-12-01T07:45:10.798Z,24.44
2022-12-01T07:47:37.789Z,24.19
2022-12-01T07:50:04.749Z,23.88
2022-12-01T07:52:31.806Z,23.63
2022-12-01T07:54:58.809Z,23.38
2022-12-01T07:57:25.796Z,23.13
2022-12-01T07:59:52.773Z,22.88
2022-12-01T08:02:19.853Z,22.75
2022-12-01T08:04:46.918Z,22.56
2022-12-01T08:07:13.889Z,22.38
2022-12-01T08:09:40.926Z,22.19
2022-12-01T08:12:07.897Z,22.06
2022-12-01T08:14:34.900Z,21.88
2022-12-01T08:17:01.867Z,21.75
2022-12-01T08:19:28.850Z,21.63
2022-12-01T08:21:55.877Z,21.56
2022-12-01T08:24:22.846Z,21.75
2022-12-01T08:26:49.859Z,22.19
2022-12-01T08:29:20.153Z,22.88
2022-12-01T08:31:47.577Z,23.88
2022-12-01T08:34:14.754Z,24.94
2022-12-01T08:36:41.710Z,25.81
2022-12-01T08:39:08.693Z,26.13
2022-12-01T08:41:35.652Z,26.19
2022-12-01T08:44:02.635Z,26.00
2022-12-01T08:46:29.759Z,25.88
2022-12-01T08:48:56.828Z,25.69
2022-12-01T08:51:23.797Z,25.50
2022-12-01T08:53:50.818Z,25.31
2022-12-01T08:56:17.796Z,25.19
2022-12-01T08:58:44.799Z,25.13
2022-12-01T09:01:11.771Z,25.50
2022-12-01T09:03:38.761Z,25.69
2022-12-01T09:06:05.757Z,25.19
2022-12-01T09:08:32.718Z,24.88
2022-12-01T09:10:59.709Z,24.69
2022-12-01T09:13:26.698Z,24.56
2022-12-01T09:15:53.793Z,24.50
2022-12-01T09:18:21.035Z,24.38
2022-12-01T09:20:48.090Z,24.38
2022-12-01T09:23:15.129Z,24.31
2022-12-01T09:25:42.103Z,24.25
2022-12-01T09:28:09.115Z,24.13
2022-12-01T09:30:36.102Z,24.06
2022-12-01T09:33:03.079Z,24.00
2022-12-01T09:35:30.148Z,24.00
2022-12-01T09:37:57.110Z,23.94
2022-12-01T09:40:24.106Z,23.81
2022-12-01T09:42:51.132Z,23.75
2022-12-01T09:45:18.105Z,23.75
2022-12-01T09:47:45.062Z,23.63
2022-12-01T09:50:12.095Z,23.63
2022-12-01T09:52:39.129Z,23.56
2022-12-01T09:55:06.167Z,23.50
2022-12-01T09:57:33.230Z,23.50
2022-12-01T10:00:00.246Z,23.44
2022-12-01T10:02:27.331Z,23.38
2022-12-01T10:04:54.421Z,23.31
2022-12-01T10:07:21.546Z,23.25
2022-12-01T10:09:48.818Z,23.19
2022-12-01T10:12:15.962Z,23.13
2022-12-01T10:14:42.957Z,23.06
2022-12-01T10:17:09.993Z,23.06
2022-12-01T10:19:36.956Z,22.94
2022-12-01T10:22:03.965Z,22.88
2022-12-01T10:24:30.951Z,22.81
2022-12-01T10:26:57.938Z,22.81
2022-12-01T10:29:24.930Z,22.75
2022-12-01T10:31:51.998Z,22.75
2022-12-01T10:34:18.981Z,22.69
2022-12-01T10:36:46.030Z,22.63
2022-12-01T10:39:13.045Z,22.56
2022-12-01T10:41:40.046Z,22.56
2022-12-01T10:44:07.010Z,22.50
2022-12-01T10:46:34.006Z,22.50
2022-12-01T10:49:00.978Z,22.50
2022-12-01T10:51:28.013Z,22.50
2022-12-01T10:53:55.012Z,22.44
2022-12-01T10:56:22.011Z,22.44
2022-12-01T10:58:48.996Z,22.44
2022-12-01T11:01:16.093Z,22.44
2022-12-01T11:03:43.206Z,22.38
2022-12-01T11:06:10.266Z,22.44
2022-12-01T11:08:37.266Z,22.44
2022-12-01T11:11:04.314Z,22.44
2022-12-01T11:13:31.284Z,22.44
2022-12-01T11:15:58.295Z,22.44
2022-12-01T11:18:25.279Z,22.44
2022-12-01T11:20:52.280Z,22.44
2022-12-01T11:23:19.279Z,22.38
2022-12-01T11:25:46.291Z,22.38
2022-12-01T11:28:13.273Z,22.38
2022-12-01T11:30:40.255Z,22.31
2022-12-01T11:33:07.243Z,22.31
2022-12-01T11:35:34.203Z,22.25
2022-12-01T11:38:30.608Z,22.19
2022-12-01T11:40:48.221Z,22.06
2022-12-01T11:43:15.205Z,22.00
2022-12-01T11:45:42.280Z,21.88
2022-12-01T11:48:09.304Z,21.81
2022-12-01T11:50:36.312Z,21.75
2022-12-01T11:53:03.291Z,21.63
2022-12-01T11:55:30.290Z,21.50
2022-12-01T11:57:57.322Z,21.44
2022-12-01T12:00:24.295Z,21.31
2022-12-01T12:02:51.321Z,21.25
2022-12-01T12:05:18.371Z,21.50
2022-12-01T12:07:45.715Z,22.13
2022-12-01T12:10:12.922Z,23.19
2022-12-01T12:12:39.945Z,24.19
2022-12-01T12:15:06.975Z,24.88
2022-12-01T12:17:34.068Z,24.94
2022-12-01T12:20:09.421Z,25.00
2022-12-01T12:22:36.684Z,24.63
2022-12-01T12:25:03.706Z,24.31
2022-12-01T12:27:30.690Z,24.00
2022-12-01T12:29:57.746Z,23.69
2022-12-01T12:32:24.770Z,23.31
2022-12-01T12:34:51.793Z,23.06
2022-12-01T12:37:18.754Z,22.81
2022-12-01T12:39:45.747Z,22.63
2022-12-01T12:42:12.850Z,22.31
2022-12-01T12:44:39.850Z,22.00
2022-12-01T12:47:06.896Z,21.88
2022-12-01T12:49:33.866Z,21.63
2022-12-01T12:52:07.839Z,21.38
2022-12-01T12:54:35.617Z,21.06
2022-12-01T12:57:02.714Z,20.88
2022-12-01T12:59:29.682Z,20.94
2022-12-01T13:01:56.777Z,21.13
2022-12-01T13:04:23.800Z,21.63
2022-12-01T13:06:50.824Z,22.56
2022-12-01T13:09:17.855Z,23.63
2022-12-01T13:11:44.822Z,24.63
2022-12-01T13:14:11.839Z,25.63
2022-12-01T13:16:38.845Z,26.06
2022-12-01T13:19:05.838Z,26.25
2022-12-01T13:21:33.016Z,26.06
2022-12-01T13:24:00.017Z,25.56
2022-12-01T13:26:26.987Z,25.06
2022-12-01T13:28:54.009Z,24.56
2022-12-01T13:31:21.091Z,24.06
2022-12-01T13:33:48.186Z,23.56
2022-12-01T13:36:45.164Z,23.19
2022-12-01T13:39:03.478Z,22.63
2022-12-01T13:41:30.478Z,22.19
2022-12-01T13:43:57.453Z,21.81
2022-12-01T13:46:24.494Z,21.44
2022-12-01T13:48:51.555Z,21.06
2022-12-01T13:51:18.512Z,20.88
2022-12-01T13:53:45.509Z,21.38
2022-12-01T13:56:12.507Z,22.19
2022-12-01T14:01:24.413Z,24.25
2022-12-01T14:03:51.531Z,25.06
2022-12-01T14:06:18.522Z,25.56
2022-12-01T14:08:45.542Z,25.75
2022-12-01T14:11:12.584Z,25.50
2022-12-01T14:13:39.553Z,25.06
2022-12-01T14:16:06.641Z,24.63
2022-12-01T14:18:33.671Z,24.13
2022-12-01T14:21:00.676Z,23.56
2022-12-01T14:23:27.687Z,23.13
2022-12-01T14:25:54.687Z,22.69
2022-12-01T14:28:21.773Z,22.19
2022-12-01T14:41:56.358Z,9.69
2022-12-01T14:44:25.506Z,11.56
2022-12-01T14:46:52.596Z,13.25
2022-12-01T14:49:19.658Z,14.63
2022-12-01T14:51:46.732Z,15.94
2022-12-01T14:54:13.752Z,17.19
2022-12-01T14:56:40.848Z,18.19
2022-12-01T14:59:07.881Z,19.25
2022-12-01T15:01:34.895Z,20.31
2022-12-01T15:04:01.912Z,21.13
2022-12-01T15:06:28.997Z,22.06
2022-12-01T15:09:25.097Z,22.94
2022-12-01T15:11:43.121Z,23.75
2022-12-01T15:14:10.152Z,24.25
2022-12-01T15:16:37.313Z,24.31
2022-12-01T15:19:04.596Z,24.06
2022-12-01T15:21:31.624Z,23.69
2022-12-01T15:23:58.830Z,23.19
2022-12-01T15:26:26.099Z,22.69
2022-12-01T15:28:53.708Z,22.19
2022-12-01T15:31:20.856Z,21.81
2022-12-01T15:33:51.069Z,21.38
2022-12-01T15:36:18.252Z,21.06
2022-12-01T15:38:45.748Z,21.25
2022-12-01T15:41:29.775Z,21.88
2022-12-01T15:43:57.768Z,22.88
2022-12-01T15:46:24.840Z,23.69
2022-12-01T15:48:51.920Z,24.44
2022-12-01T15:51:18.917Z,24.75
2022-12-01T15:53:46.020Z,24.75
2022-12-01T15:56:13.097Z,24.38
2022-12-01T15:58:40.140Z,23.94
2022-12-01T16:01:07.218Z,23.50
2022-12-01T16:03:34.328Z,23.00
2022-12-01T16:06:01.347Z,22.63
2022-12-01T16:08:28.470Z,21.94
2022-12-01T16:10:55.623Z,21.63
2022-12-01T16:13:22.624Z,21.31
2022-12-01T16:15:49.633Z,21.00
2022-12-01T16:18:16.654Z,20.94
2022-12-01T16:20:43.688Z,21.31
2022-12-01T16:23:10.720Z,22.06
2022-12-01T16:25:37.743Z,22.81
2022-12-01T16:28:04.754Z,23.75
2022-12-01T16:30:31.998Z,24.50
2022-12-01T16:32:59.113Z,24.94
2022-12-01T16:35:26.250Z,24.94
2022-12-01T16:37:53.338Z,24.56
2022-12-01T16:40:20.342Z,24.06
2022-12-01T16:42:47.459Z,23.63
2022-12-01T16:45:14.507Z,23.06
2022-12-01T16:47:41.535Z,22.75
2022-12-01T16:50:08.518Z,22.44
2022-12-01T16:52:44.082Z,22.13
2022-12-01T16:55:11.479Z,21.75
2022-12-01T16:57:38.543Z,21.44
2022-12-01T17:00:05.549Z,21.19
2022-12-01T17:02:32.574Z,21.44
2022-12-01T17:04:59.594Z,22.19
2022-12-01T17:07:26.640Z,23.13
2022-12-01T17:09:53.772Z,24.19
2022-12-01T17:12:20.890Z,24.88
2022-12-01T17:14:47.997Z,25.25
2022-12-01T17:17:15.254Z,25.25
2022-12-01T17:19:42.283Z,25.06
2022-12-01T17:22:09.353Z,24.81
2022-12-01T17:24:36.462Z,24.50
2022-12-01T17:27:03.483Z,24.19
2022-12-01T17:29:30.509Z,24.00
2022-12-01T17:31:57.578Z,23.88
2022-12-01T17:34:24.698Z,23.69
2022-12-01T17:36:51.704Z,23.63
2022-12-01T17:39:18.778Z,23.69
2022-12-01T17:41:45.778Z,23.63
2022-12-01T17:44:12.817Z,23.63
2022-12-01T17:46:39.834Z,23.31
2022-12-01T17:49:06.981Z,23.13
2022-12-01T17:51:34.623Z,23.06
2022-12-01T17:54:01.970Z,22.94
2022-12-01T17:56:28.977Z,22.94
2022-12-01T17:58:56.034Z,22.94
2022-12-01T18:01:26.954Z,22.94
2022-12-01T18:03:57.108Z,23.00
2022-12-01T18:06:24.194Z,23.13
2022-12-01T18:08:51.251Z,23.19
2022-12-01T18:11:18.260Z,23.25
2022-12-01T18:13:45.309Z,23.31
2022-12-01T18:16:12.353Z,23.44
2022-12-01T18:18:39.371Z,23.50
2022-12-01T18:21:06.383Z,23.63
2022-12-01T18:23:33.442Z,23.81
2022-12-01T18:26:00.485Z,23.94
2022-12-01T18:28:27.486Z,24.13
2022-12-01T18:30:54.564Z,24.25
2022-12-01T18:33:21.635Z,24.44
2022-12-01T18:35:48.662Z,24.63
2022-12-01T18:38:15.659Z,24.88
2022-12-01T18:40:42.709Z,25.00
2022-12-01T18:43:09.695Z,25.06
2022-12-01T18:45:36.705Z,25.19
2022-12-01T18:48:03.770Z,25.25
2022-12-01T18:50:30.814Z,25.31
2022-12-01T18:52:57.840Z,25.38
2022-12-01T18:55:24.873Z,25.44
2022-12-01T18:57:51.919Z,25.50
2022-12-01T19:00:18.959Z,25.56
2022-12-01T19:02:46.073Z,25.63
2022-12-01T19:05:13.117Z,25.63
2022-12-01T19:07:40.324Z,25.69
2022-12-01T19:10:07.453Z,25.75
2022-12-01T19:12:40.637Z,25.75
2022-12-01T19:15:08.140Z,25.75
2022-12-01T19:17:35.193Z,25.88
2022-12-01T19:20:02.235Z,25.94
2022-12-01T19:22:29.265Z,25.94
2022-12-01T19:24:56.794Z,26.00
2022-12-01T19:27:23.948Z,25.94
2022-12-01T19:29:50.956Z,26.00
2022-12-01T19:32:18.095Z,26.00
2022-12-01T19:34:45.160Z,26.00
2022-12-01T19:37:12.238Z,25.94
2022-12-01T19:39:39.521Z,25.94
2022-12-01T19:42:06.619Z,25.88
2022-12-01T19:44:33.716Z,25.81
2022-12-01T19:47:00.824Z,25.81
2022-12-01T19:49:27.845Z,25.81
2022-12-01T19:51:55.059Z,25.75
2022-12-01T19:54:22.073Z,25.69
2022-12-01T19:56:49.452Z,25.63
2022-12-01T19:59:16.494Z,25.56
2022-12-01T20:01:43.606Z,25.50
2022-12-01T20:04:10.834Z,25.38
2022-12-01T20:06:37.970Z,25.25
2022-12-01T20:09:05.023Z,25.13
2022-12-01T20:11:32.102Z,25.00
2022-12-01T20:13:59.232Z,24.88
2022-12-01T20:16:26.366Z,24.69
2022-12-01T20:18:53.580Z,24.50
2022-12-01T20:21:20.642Z,24.31
2022-12-01T20:23:47.736Z,24.13
2022-12-01T20:26:15.030Z,23.94
2022-12-01T20:28:42.111Z,23.75
2022-12-01T20:31:09.146Z,23.63
2022-12-01T20:33:36.315Z,23.44
2022-12-01T20:36:03.353Z,23.31
2022-12-01T20:38:30.456Z,23.13
2022-12-01T20:40:57.644Z,22.94
2022-12-01T20:43:24.794Z,22.75
2022-12-01T20:45:51.950Z,22.63
2022-12-01T20:48:19.065Z,22.38
2022-12-01T20:50:46.120Z,22.19
2022-12-01T20:53:13.209Z,22.00
2022-12-01T20:55:40.276Z,21.75
2022-12-01T20:58:07.345Z,21.56
2022-12-01T21:00:34.477Z,21.44
2022-12-01T21:03:01.545Z,21.25
2022-12-01T21:05:28.655Z,21.13
2022-12-01T21:07:55.816Z,20.94
2022-12-01T21:10:22.876Z,20.94
2022-12-01T21:12:49.886Z,21.19
2022-12-01T21:15:16.945Z,21.94
2022-12-01T21:17:44.117Z,22.63
2022-12-01T21:20:11.146Z,23.56
2022-12-01T21:22:38.224Z,24.25
2022-12-01T21:25:05.277Z,24.44
2022-12-01T21:27:32.381Z,24.25
2022-12-01T21:29:59.468Z,23.94
2022-12-01T21:32:26.604Z,23.69
2022-12-01T21:34:53.778Z,23.44
2022-12-01T21:37:20.810Z,23.06
2022-12-01T21:39:47.845Z,22.63
2022-12-01T21:42:14.924Z,22.31
2022-12-01T21:44:42.178Z,21.94
2022-12-01T21:47:09.267Z,21.63
2022-12-01T21:49:36.292Z,21.56
2022-12-01T21:52:03.355Z,22.00
2022-12-01T21:54:30.464Z,22.69
2022-12-01T21:56:57.567Z,23.63
2022-12-01T21:59:24.581Z,24.44
2022-12-01T22:01:51.799Z,25.19
2022-12-01T22:04:18.941Z,25.44
2022-12-01T22:06:46.015Z,25.25
2022-12-01T22:09:13.128Z,24.88
2022-12-01T22:11:40.205Z,24.38
2022-12-01T22:14:07.259Z,23.81
2022-12-01T22:16:34.353Z,23.25
2022-12-01T22:19:01.375Z,22.75
2022-12-01T22:21:28.426Z,22.31
2022-12-01T22:23:55.469Z,21.88
2022-12-01T22:26:22.495Z,21.56
2022-12-01T22:28:49.569Z,21.88
2022-12-01T22:31:16.612Z,22.56
2022-12-01T22:33:43.705Z,23.44
2022-12-01T22:36:10.824Z,24.38
